sensor_id;sensor_type;location;lat;lon;timestamp;temperature;humidity
3778;DHT22;1904;50.076;8.660;2022-08-21T00:00:59;16.90;1.00
3778;DHT22;1904;50.076;8.660;2022-08-21T00:03:52;17.00;1.00
3778;DHT22;1904;50.076;8.660;2022-08-21T00:09:37;16.90;1.00
3778;DHT22;1904;50.076;8.660;2022-08-21T00:12:04;16.90;1.00
3778;DHT22;1904;50.076;8.660;2022-08-21T00:14:30;16.90;1.00
3778;DHT22;1904;50.076;8.660;2022-08-21T00:16:56;16.90;1.00
3778;DHT22;1904;50.076;8.660;2022-08-21T00:19:22;16.80;1.00
3778;DHT22;1904;50.076;8.660;2022-08-21T00:21:53;16.70;1.00
3778;DHT22;1904;50.076;8.660;2022-08-21T00:24:34;16.80;1.00
3778;DHT22;1904;50.076;8.660;2022-08-21T00:27:10;16.70;1.00
3778;DHT22;1904;50.076;8.660;2022-08-21T00:32:58;16.70;1.00
3778;DHT22;1904;50.076;8.660;2022-08-21T00:35:58;16.60;1.00
3778;DHT22;1904;50.076;8.660;2022-08-21T00:38:40;16.60;1.00
3778;DHT22;1904;50.076;8.660;2022-08-21T00:41:11;16.60;1.00
3778;DHT22;1904;50.076;8.660;2022-08-21T00:43:39;16.60;1.00
3778;DHT22;1904;50.076;8.660;2022-08-21T00:46:05;16.60;1.00
3778;DHT22;1904;50.076;8.660;2022-08-21T00:48:33;16.50;1.00
3778;DHT22;1904;50.076;8.660;2022-08-21T00:51:14;16.50;1.00
3778;DHT22;1904;50.076;8.660;2022-08-21T00:53:43;16.40;1.00
3778;DHT22;1904;50.076;8.660;2022-08-21T00:56:11;16.30;1.00
3778;DHT22;1904;50.076;8.660;2022-08-21T00:58:39;16.30;1.00
3778;DHT22;1904;50.076;8.660;2022-08-21T01:01:08;16.30;1.00
3778;DHT22;1904;50.076;8.660;2022-08-21T01:03:35;16.30;1.00
3778;DHT22;1904;50.076;8.660;2022-08-21T01:06:10;16.30;1.00
3778;DHT22;1904;50.076;8.660;2022-08-21T01:08:40;16.20;1.00
3778;DHT22;1904;50.076;8.660;2022-08-21T01:11:22;16.20;1.00
3778;DHT22;1904;50.076;8.660;2022-08-21T01:13:48;16.20;1.00
3778;DHT22;1904;50.076;8.660;2022-08-21T01:16:47;16.20;1.00
3778;DHT22;1904;50.076;8.660;2022-08-21T01:19:46;16.20;1.00
3778;DHT22;1904;50.076;8.660;2022-08-21T01:22:16;16.10;1.00
3778;DHT22;1904;50.076;8.660;2022-08-21T01:24:52;16.00;1.00
3778;DHT22;1904;50.076;8.660;2022-08-21T01:27:34;16.00;1.00
3778;DHT22;1904;50.076;8.660;2022-08-21T01:30:21;16.00;1.00
3778;DHT22;1904;50.076;8.660;2022-08-21T01:36:17;15.90;1.00
3778;DHT22;1904;50.076;8.660;2022-08-21T01:39:16;15.80;1.00
3778;DHT22;1904;50.076;8.660;2022-08-21T01:41:52;15.70;1.00
3778;DHT22;1904;50.076;8.660;2022-08-21T01:44:21;15.70;1.00
3778;DHT22;1904;50.076;8.660;2022-08-21T01:47:16;15.70;1.00
3778;DHT22;1904;50.076;8.660;2022-08-21T01:49:44;15.60;1.00
3778;DHT22;1904;50.076;8.660;2022-08-21T01:52:22;15.50;1.00
3778;DHT22;1904;50.076;8.660;2022-08-21T01:54:48;15.50;1.00
3778;DHT22;1904;50.076;8.660;2022-08-21T01:57:14;15.50;1.00
3778;DHT22;1904;50.076;8.660;2022-08-21T01:59:40;15.50;1.00
3778;DHT22;1904;50.076;8.660;2022-08-21T02:02:06;15.40;1.00
3778;DHT22;1904;50.076;8.660;2022-08-21T02:04:32;15.30;1.00
3778;DHT22;1904;50.076;8.660;2022-08-21T02:07:00;15.30;1.00
3778;DHT22;1904;50.076;8.660;2022-08-21T02:09:25;15.30;1.00
3778;DHT22;1904;50.076;8.660;2022-08-21T02:11:52;15.30;1.00
3778;DHT22;1904;50.076;8.660;2022-08-21T02:14:19;15.20;1.00
3778;DHT22;1904;50.076;8.660;2022-08-21T02:16:46;15.10;1.00
3778;DHT22;1904;50.076;8.660;2022-08-21T02:19:17;15.20;1.00
3778;DHT22;1904;50.076;8.660;2022-08-21T02:21:43;15.20;1.00
3778;DHT22;1904;50.076;8.660;2022-08-21T02:24:10;15.20;1.00
3778;DHT22;1904;50.076;8.660;2022-08-21T02:26:35;15.10;1.00
3778;DHT22;1904;50.076;8.660;2022-08-21T02:29:01;15.10;1.00
3778;DHT22;1904;50.076;8.660;2022-08-21T02:31:28;15.10;1.00
3778;DHT22;1904;50.076;8.660;2022-08-21T02:33:54;15.00;1.00
3778;DHT22;1904;50.076;8.660;2022-08-21T02:36:20;15.00;1.00
3778;DHT22;1904;50.076;8.660;2022-08-21T02:38:46;15.00;1.00
3778;DHT22;1904;50.076;8.660;2022-08-21T02:41:23;15.00;1.00
3778;DHT22;1904;50.076;8.660;2022-08-21T02:43:52;15.00;1.00
3778;DHT22;1904;50.076;8.660;2022-08-21T02:46:20;14.90;1.00
3778;DHT22;1904;50.076;8.660;2022-08-21T02:48:46;14.90;1.00
3778;DHT22;1904;50.076;8.660;2022-08-21T02:51:22;14.80;1.00
3778;DHT22;1904;50.076;8.660;2022-08-21T02:53:49;14.80;1.00
3778;DHT22;1904;50.076;8.660;2022-08-21T02:56:17;14.80;1.00
3778;DHT22;1904;50.076;8.660;2022-08-21T02:58:49;14.80;1.00
3778;DHT22;1904;50.076;8.660;2022-08-21T03:01:17;14.70;1.00
3778;DHT22;1904;50.076;8.660;2022-08-21T03:03:45;14.60;1.00
3778;DHT22;1904;50.076;8.660;2022-08-21T03:06:14;14.50;1.00
3778;DHT22;1904;50.076;8.660;2022-08-21T03:08:40;14.50;1.00
3778;DHT22;1904;50.076;8.660;2022-08-21T03:11:22;14.50;1.00
3778;DHT22;1904;50.076;8.660;2022-08-21T03:17:16;14.50;1.00
3778;DHT22;1904;50.076;8.660;2022-08-21T03:19:58;14.40;1.00
3778;DHT22;1904;50.076;8.660;2022-08-21T03:22:40;14.40;1.00
3778;DHT22;1904;50.076;8.660;2022-08-21T03:25:23;14.30;1.00
3778;DHT22;1904;50.076;8.660;2022-08-21T03:27:49;14.30;1.00
3778;DHT22;1904;50.076;8.660;2022-08-21T03:30:18;14.20;1.00
3778;DHT22;1904;50.076;8.660;2022-08-21T03:32:48;14.20;1.00
3778;DHT22;1904;50.076;8.660;2022-08-21T03:35:14;14.30;1.00
3778;DHT22;1904;50.076;8.660;2022-08-21T03:37:40;14.20;1.00
3778;DHT22;1904;50.076;8.660;2022-08-21T03:40:17;14.20;1.00
3778;DHT22;1904;50.076;8.660;2022-08-21T03:42:43;14.20;1.00
3778;DHT22;1904;50.076;8.660;2022-08-21T03:45:10;14.20;1.00
3778;DHT22;1904;50.076;8.660;2022-08-21T03:47:50;14.10;1.00
3778;DHT22;1904;50.076;8.660;2022-08-21T03:50:16;14.10;1.00
3778;DHT22;1904;50.076;8.660;2022-08-21T03:52:43;14.10;1.00
3778;DHT22;1904;50.076;8.660;2022-08-21T03:55:08;14.10;1.00
3778;DHT22;1904;50.076;8.660;2022-08-21T04:07:15;13.90;1.00
3778;DHT22;1904;50.076;8.660;2022-08-21T04:09:46;13.90;1.00
3778;DHT22;1904;50.076;8.660;2022-08-21T04:12:12;13.90;1.00
3778;DHT22;1904;50.076;8.660;2022-08-21T04:14:38;13.90;1.00
3778;DHT22;1904;50.076;8.660;2022-08-21T04:17:04;13.90;1.00
3778;DHT22;1904;50.076;8.660;2022-08-21T04:19:30;13.90;1.00
3778;DHT22;1904;50.076;8.660;2022-08-21T04:21:56;13.90;1.00
3778;DHT22;1904;50.076;8.660;2022-08-21T04:24:22;13.90;1.00
3778;DHT22;1904;50.076;8.660;2022-08-21T04:26:48;13.90;1.00
3778;DHT22;1904;50.076;8.660;2022-08-21T04:29:14;13.90;1.00
3778;DHT22;1904;50.076;8.660;2022-08-21T04:31:40;13.90;1.00
3778;DHT22;1904;50.076;8.660;2022-08-21T04:34:05;13.90;1.00
3778;DHT22;1904;50.076;8.660;2022-08-21T04:36:32;13.90;1.00
3778;DHT22;1904;50.076;8.660;2022-08-21T04:38:58;13.90;1.00
3778;DHT22;1904;50.076;8.660;2022-08-21T04:41:24;13.80;1.00
3778;DHT22;1904;50.076;8.660;2022-08-21T04:43:52;13.80;1.00
3778;DHT22;1904;50.076;8.660;2022-08-21T04:46:21;13.80;1.00
3778;DHT22;1904;50.076;8.660;2022-08-21T04:48:47;13.80;1.00
3778;DHT22;1904;50.076;8.660;2022-08-21T04:51:21;13.80;1.00
3778;DHT22;1904;50.076;8.660;2022-08-21T04:53:57;13.80;1.00
3778;DHT22;1904;50.076;8.660;2022-08-21T04:56:33;13.90;1.00
3778;DHT22;1904;50.076;8.660;2022-08-21T04:59:10;13.90;1.00
3778;DHT22;1904;50.076;8.660;2022-08-21T05:01:46;14.00;1.00
3778;DHT22;1904;50.076;8.660;2022-08-21T05:04:15;14.00;1.00
3778;DHT22;1904;50.076;8.660;2022-08-21T05:06:44;14.00;1.00
3778;DHT22;1904;50.076;8.660;2022-08-21T05:09:17;14.10;1.00
3778;DHT22;1904;50.076;8.660;2022-08-21T05:11:44;14.10;1.00
3778;DHT22;1904;50.076;8.660;2022-08-21T05:14:11;14.20;1.00
3778;DHT22;1904;50.076;8.660;2022-08-21T05:16:37;14.20;1.00
3778;DHT22;1904;50.076;8.660;2022-08-21T05:19:07;14.30;1.00
3778;DHT22;1904;50.076;8.660;2022-08-21T05:21:35;14.40;1.00
3778;DHT22;1904;50.076;8.660;2022-08-21T05:24:02;14.50;1.00
3778;DHT22;1904;50.076;8.660;2022-08-21T05:26:30;14.60;1.00
3778;DHT22;1904;50.076;8.660;2022-08-21T05:28:55;14.60;1.00
3778;DHT22;1904;50.076;8.660;2022-08-21T05:31:21;14.70;1.00
3778;DHT22;1904;50.076;8.660;2022-08-21T05:37:12;14.90;1.00
3778;DHT22;1904;50.076;8.660;2022-08-21T05:39:40;15.00;1.00
3778;DHT22;1904;50.076;8.660;2022-08-21T05:42:16;15.10;1.00
3778;DHT22;1904;50.076;8.660;2022-08-21T05:44:46;15.20;1.00
3778;DHT22;1904;50.076;8.660;2022-08-21T05:47:34;15.30;1.00
3778;DHT22;1904;50.076;8.660;2022-08-21T05:50:16;15.40;1.00
3778;DHT22;1904;50.076;8.660;2022-08-21T05:52:46;15.50;1.00
3778;DHT22;1904;50.076;8.660;2022-08-21T05:55:16;15.60;1.00
3778;DHT22;1904;50.076;8.660;2022-08-21T05:57:46;15.70;1.00
3778;DHT22;1904;50.076;8.660;2022-08-21T06:00:29;15.80;1.00
3778;DHT22;1904;50.076;8.660;2022-08-21T06:02:59;15.90;1.00
3778;DHT22;1904;50.076;8.660;2022-08-21T06:05:28;16.00;1.00
3778;DHT22;1904;50.076;8.660;2022-08-21T06:07:58;16.20;1.00
3778;DHT22;1904;50.076;8.660;2022-08-21T06:10:24;16.30;1.00
3778;DHT22;1904;50.076;8.660;2022-08-21T06:12:58;16.40;1.00
3778;DHT22;1904;50.076;8.660;2022-08-21T06:15:34;16.50;1.00
3778;DHT22;1904;50.076;8.660;2022-08-21T06:21:22;16.90;1.00
3778;DHT22;1904;50.076;8.660;2022-08-21T06:24:22;17.20;1.00
3778;DHT22;1904;50.076;8.660;2022-08-21T06:26:48;17.30;1.00
3778;DHT22;1904;50.076;8.660;2022-08-21T06:29:17;17.40;1.00
3778;DHT22;1904;50.076;8.660;2022-08-21T06:31:52;17.60;1.00
3778;DHT22;1904;50.076;8.660;2022-08-21T06:34:39;17.70;1.00
3778;DHT22;1904;50.076;8.660;2022-08-21T06:37:10;17.90;1.00
3778;DHT22;1904;50.076;8.660;2022-08-21T06:39:36;18.00;1.00
3778;DHT22;1904;50.076;8.660;2022-08-21T06:42:02;18.20;1.00
3778;DHT22;1904;50.076;8.660;2022-08-21T06:44:30;18.30;1.00
3778;DHT22;1904;50.076;8.660;2022-08-21T06:46:58;18.50;1.00
3778;DHT22;1904;50.076;8.660;2022-08-21T06:49:28;18.70;1.00
3778;DHT22;1904;50.076;8.660;2022-08-21T06:52:12;18.80;1.00
3778;DHT22;1904;50.076;8.660;2022-08-21T06:54:41;19.00;1.00
3778;DHT22;1904;50.076;8.660;2022-08-21T06:57:34;19.10;1.00
3778;DHT22;1904;50.076;8.660;2022-08-21T07:00:01;19.20;1.00
3778;DHT22;1904;50.076;8.660;2022-08-21T07:02:34;19.40;1.00
3778;DHT22;1904;50.076;8.660;2022-08-21T07:05:10;19.60;1.00
3778;DHT22;1904;50.076;8.660;2022-08-21T07:07:40;19.80;1.00
3778;DHT22;1904;50.076;8.660;2022-08-21T07:10:07;19.90;1.00
3778;DHT22;1904;50.076;8.660;2022-08-21T07:12:40;20.00;1.00
3778;DHT22;1904;50.076;8.660;2022-08-21T07:15:22;20.20;1.00
3778;DHT22;1904;50.076;8.660;2022-08-21T07:17:59;20.30;1.00
3778;DHT22;1904;50.076;8.660;2022-08-21T07:20:30;20.40;1.00
3778;DHT22;1904;50.076;8.660;2022-08-21T07:23:01;20.60;1.00
3778;DHT22;1904;50.076;8.660;2022-08-21T07:25:29;20.70;1.00
3778;DHT22;1904;50.076;8.660;2022-08-21T07:31:23;21.10;1.00
3778;DHT22;1904;50.076;8.660;2022-08-21T07:33:59;21.30;1.00
3778;DHT22;1904;50.076;8.660;2022-08-21T07:36:25;21.40;1.00
3778;DHT22;1904;50.076;8.660;2022-08-21T07:42:12;21.70;1.00
3778;DHT22;1904;50.076;8.660;2022-08-21T07:44:54;21.80;1.00
3778;DHT22;1904;50.076;8.660;2022-08-21T07:47:28;21.90;1.00
3778;DHT22;1904;50.076;8.660;2022-08-21T07:50:22;22.00;1.00
3778;DHT22;1904;50.076;8.660;2022-08-21T07:52:48;22.10;1.00
3778;DHT22;1904;50.076;8.660;2022-08-21T07:55:17;22.10;1.00
3778;DHT22;1904;50.076;8.660;2022-08-21T07:57:43;22.20;1.00
3778;DHT22;1904;50.076;8.660;2022-08-21T08:00:40;22.30;1.00
3778;DHT22;1904;50.076;8.660;2022-08-21T08:03:10;22.50;1.00
3778;DHT22;1904;50.076;8.660;2022-08-21T08:05:41;22.60;1.00
3778;DHT22;1904;50.076;8.660;2022-08-21T08:08:06;22.80;1.00
3778;DHT22;1904;50.076;8.660;2022-08-21T08:10:35;22.90;1.00
3778;DHT22;1904;50.076;8.660;2022-08-21T08:16:24;23.10;1.00
3778;DHT22;1904;50.076;8.660;2022-08-21T08:18:52;23.20;1.00
3778;DHT22;1904;50.076;8.660;2022-08-21T08:21:22;23.30;1.00
3778;DHT22;1904;50.076;8.660;2022-08-21T08:24:22;23.50;1.00
3778;DHT22;1904;50.076;8.660;2022-08-21T08:30:12;23.60;1.00
3778;DHT22;1904;50.076;8.660;2022-08-21T08:32:47;23.60;1.00
3778;DHT22;1904;50.076;8.660;2022-08-21T08:38:35;23.70;1.00
3778;DHT22;1904;50.076;8.660;2022-08-21T08:41:34;23.80;1.00
3778;DHT22;1904;50.076;8.660;2022-08-21T08:47:25;24.00;1.00
3778;DHT22;1904;50.076;8.660;2022-08-21T08:50:26;24.00;1.00
3778;DHT22;1904;50.076;8.660;2022-08-21T08:53:06;23.80;1.00
3778;DHT22;1904;50.076;8.660;2022-08-21T08:55:38;23.60;1.00
3778;DHT22;1904;50.076;8.660;2022-08-21T09:01:27;23.60;1.00
3778;DHT22;1904;50.076;8.660;2022-08-21T09:04:05;23.70;1.00
3778;DHT22;1904;50.076;8.660;2022-08-21T09:07:04;23.80;1.00
3778;DHT22;1904;50.076;8.660;2022-08-21T09:10:04;23.90;1.00
3778;DHT22;1904;50.076;8.660;2022-08-21T09:15:36;24.00;1.00
3778;DHT22;1904;50.076;8.660;2022-08-21T09:18:36;24.00;1.00
3778;DHT22;1904;50.076;8.660;2022-08-21T09:24:29;24.20;1.00
3778;DHT22;1904;50.076;8.660;2022-08-21T09:27:09;24.40;1.00
3778;DHT22;1904;50.076;8.660;2022-08-21T09:29:41;24.70;1.00
3778;DHT22;1904;50.076;8.660;2022-08-21T09:32:16;25.10;1.00
3778;DHT22;1904;50.076;8.660;2022-08-21T09:34:58;25.40;1.00
3778;DHT22;1904;50.076;8.660;2022-08-21T09:37:30;25.60;1.00
3778;DHT22;1904;50.076;8.660;2022-08-21T09:39:57;25.60;1.00
3778;DHT22;1904;50.076;8.660;2022-08-21T09:42:29;25.30;1.00
3778;DHT22;1904;50.076;8.660;2022-08-21T09:45:16;25.00;1.00
3778;DHT22;1904;50.076;8.660;2022-08-21T09:47:42;24.80;1.00
3778;DHT22;1904;50.076;8.660;2022-08-21T09:50:16;24.80;1.00
3778;DHT22;1904;50.076;8.660;2022-08-21T09:52:49;24.80;1.00
3778;DHT22;1904;50.076;8.660;2022-08-21T09:55:20;24.80;1.00
3778;DHT22;1904;50.076;8.660;2022-08-21T09:58:05;25.00;1.00
3778;DHT22;1904;50.076;8.660;2022-08-21T10:00:33;25.20;1.00
3778;DHT22;1904;50.076;8.660;2022-08-21T10:03:20;25.30;1.00
3778;DHT22;1904;50.076;8.660;2022-08-21T10:05:56;25.50;1.00
3778;DHT22;1904;50.076;8.660;2022-08-21T10:08:24;25.70;1.00
3778;DHT22;1904;50.076;8.660;2022-08-21T10:10:54;25.70;1.00
3778;DHT22;1904;50.076;8.660;2022-08-21T10:21:20;26.00;1.00
3778;DHT22;1904;50.076;8.660;2022-08-21T10:27:02;25.60;1.00
3778;DHT22;1904;50.076;8.660;2022-08-21T10:29:42;25.60;1.00
3778;DHT22;1904;50.076;8.660;2022-08-21T10:38:20;26.10;1.00
3778;DHT22;1904;50.076;8.660;2022-08-21T10:43:55;26.50;1.00
3778;DHT22;1904;50.076;8.660;2022-08-21T10:46:55;26.30;1.00
3778;DHT22;1904;50.076;8.660;2022-08-21T10:49:39;26.20;1.00
3778;DHT22;1904;50.076;8.660;2022-08-21T10:57:54;26.40;1.00
3778;DHT22;1904;50.076;8.660;2022-08-21T11:00:28;26.60;1.00
3778;DHT22;1904;50.076;8.660;2022-08-21T11:03:03;26.80;1.00
3778;DHT22;1904;50.076;8.660;2022-08-21T11:05:35;26.80;1.00
3778;DHT22;1904;50.076;8.660;2022-08-21T11:08:17;26.60;1.00
3778;DHT22;1904;50.076;8.660;2022-08-21T11:10:52;26.50;1.00
3778;DHT22;1904;50.076;8.660;2022-08-21T11:13:30;26.30;1.00
3778;DHT22;1904;50.076;8.660;2022-08-21T11:16:07;26.20;1.00
3778;DHT22;1904;50.076;8.660;2022-08-21T11:18:43;26.10;1.00
3778;DHT22;1904;50.076;8.660;2022-08-21T11:21:34;26.10;1.00
3778;DHT22;1904;50.076;8.660;2022-08-21T11:29:38;26.10;1.00
3778;DHT22;1904;50.076;8.660;2022-08-21T11:35:46;26.20;1.00
3778;DHT22;1904;50.076;8.660;2022-08-21T11:48:57;27.40;1.00
3778;DHT22;1904;50.076;8.660;2022-08-21T11:54:37;27.80;1.00
3778;DHT22;1904;50.076;8.660;2022-08-21T11:59:55;27.70;1.00
3778;DHT22;1904;50.076;8.660;2022-08-21T12:02:28;27.80;1.00
3778;DHT22;1904;50.076;8.660;2022-08-21T12:05:02;27.80;1.00
3778;DHT22;1904;50.076;8.660;2022-08-21T12:07:36;27.70;1.00
3778;DHT22;1904;50.076;8.660;2022-08-21T12:10:05;27.60;1.00
3778;DHT22;1904;50.076;8.660;2022-08-21T12:12:35;27.50;1.00
3778;DHT22;1904;50.076;8.660;2022-08-21T12:26:38;27.70;1.00
3778;DHT22;1904;50.076;8.660;2022-08-21T12:29:33;27.90;1.00
3778;DHT22;1904;50.076;8.660;2022-08-21T12:32:03;27.80;1.00
3778;DHT22;1904;50.076;8.660;2022-08-21T12:34:51;27.90;1.00
3778;DHT22;1904;50.076;8.660;2022-08-21T12:40:18;28.00;1.00
3778;DHT22;1904;50.076;8.660;2022-08-21T12:42:49;28.20;1.00
3778;DHT22;1904;50.076;8.660;2022-08-21T12:48:03;28.70;1.00
3778;DHT22;1904;50.076;8.660;2022-08-21T12:50:54;29.00;1.00
3778;DHT22;1904;50.076;8.660;2022-08-21T12:53:29;29.30;1.00
3778;DHT22;1904;50.076;8.660;2022-08-21T12:55:56;29.60;1.00
3778;DHT22;1904;50.076;8.660;2022-08-21T12:58:28;29.80;1.00
3778;DHT22;1904;50.076;8.660;2022-08-21T13:01:06;29.70;1.00
3778;DHT22;1904;50.076;8.660;2022-08-21T13:03:36;29.80;1.00
3778;DHT22;1904;50.076;8.660;2022-08-21T13:06:04;29.60;1.00
3778;DHT22;1904;50.076;8.660;2022-08-21T13:08:33;29.50;1.00
3778;DHT22;1904;50.076;8.660;2022-08-21T13:11:03;29.30;1.00
3778;DHT22;1904;50.076;8.660;2022-08-21T13:13:30;29.00;1.00
3778;DHT22;1904;50.076;8.660;2022-08-21T13:16:05;28.90;1.00
3778;DHT22;1904;50.076;8.660;2022-08-21T13:18:34;28.80;1.00
3778;DHT22;1904;50.076;8.660;2022-08-21T13:21:09;28.50;1.00
3778;DHT22;1904;50.076;8.660;2022-08-21T13:23:36;28.40;1.00
3778;DHT22;1904;50.076;8.660;2022-08-21T13:26:12;28.40;1.00
3778;DHT22;1904;50.076;8.660;2022-08-21T13:28:38;28.50;1.00
3778;DHT22;1904;50.076;8.660;2022-08-21T13:31:07;28.40;1.00
3778;DHT22;1904;50.076;8.660;2022-08-21T13:33:37;28.40;1.00
3778;DHT22;1904;50.076;8.660;2022-08-21T13:36:14;28.20;1.00
3778;DHT22;1904;50.076;8.660;2022-08-21T13:38:44;28.20;1.00
3778;DHT22;1904;50.076;8.660;2022-08-21T13:43:46;28.50;1.00
3778;DHT22;1904;50.076;8.660;2022-08-21T13:46:13;28.80;1.00
3778;DHT22;1904;50.076;8.660;2022-08-21T13:48:40;28.90;1.00
3778;DHT22;1904;50.076;8.660;2022-08-21T13:51:06;29.10;1.00
3778;DHT22;1904;50.076;8.660;2022-08-21T13:56:08;29.70;1.00
3778;DHT22;1904;50.076;8.660;2022-08-21T13:58:44;29.90;1.00
3778;DHT22;1904;50.076;8.660;2022-08-21T14:03:48;30.20;1.00
3778;DHT22;1904;50.076;8.660;2022-08-21T14:06:17;30.40;1.00
3778;DHT22;1904;50.076;8.660;2022-08-21T14:08:53;30.70;1.00
3778;DHT22;1904;50.076;8.660;2022-08-21T14:11:19;30.90;1.00
3778;DHT22;1904;50.076;8.660;2022-08-21T14:13:49;30.80;1.00
3778;DHT22;1904;50.076;8.660;2022-08-21T14:16:23;30.70;1.00
3778;DHT22;1904;50.076;8.660;2022-08-21T14:21:55;30.40;1.00
3778;DHT22;1904;50.076;8.660;2022-08-21T14:29:22;30.60;1.00
3778;DHT22;1904;50.076;8.660;2022-08-21T14:31:58;30.70;1.00
3778;DHT22;1904;50.076;8.660;2022-08-21T14:34:26;30.70;1.00
3778;DHT22;1904;50.076;8.660;2022-08-21T14:36:52;30.70;1.00
3778;DHT22;1904;50.076;8.660;2022-08-21T14:39:18;30.60;1.00
3778;DHT22;1904;50.076;8.660;2022-08-21T14:41:44;30.60;1.00
3778;DHT22;1904;50.076;8.660;2022-08-21T14:44:12;30.60;1.00
3778;DHT22;1904;50.076;8.660;2022-08-21T14:46:41;30.70;1.00
3778;DHT22;1904;50.076;8.660;2022-08-21T14:49:07;30.60;1.00
3778;DHT22;1904;50.076;8.660;2022-08-21T14:51:33;30.60;1.00
3778;DHT22;1904;50.076;8.660;2022-08-21T14:53:58;30.60;1.00
3778;DHT22;1904;50.076;8.660;2022-08-21T14:56:24;30.80;1.00
3778;DHT22;1904;50.076;8.660;2022-08-21T14:58:51;31.20;1.00
3778;DHT22;1904;50.076;8.660;2022-08-21T15:01:19;31.50;1.00
3778;DHT22;1904;50.076;8.660;2022-08-21T15:03:46;32.40;1.00
3778;DHT22;1904;50.076;8.660;2022-08-21T15:06:15;33.90;1.00
3778;DHT22;1904;50.076;8.660;2022-08-21T15:08:41;35.00;1.00
3778;DHT22;1904;50.076;8.660;2022-08-21T15:11:09;34.60;1.00
3778;DHT22;1904;50.076;8.660;2022-08-21T15:13:36;35.10;1.00
3778;DHT22;1904;50.076;8.660;2022-08-21T15:16:02;36.20;1.00
3778;DHT22;1904;50.076;8.660;2022-08-21T15:18:29;37.50;1.00
3778;DHT22;1904;50.076;8.660;2022-08-21T15:20:59;38.90;1.00
3778;DHT22;1904;50.076;8.660;2022-08-21T15:23:24;40.10;1.00
3778;DHT22;1904;50.076;8.660;2022-08-21T15:25:51;41.10;1.00
3778;DHT22;1904;50.076;8.660;2022-08-21T15:28:18;41.80;1.00
3778;DHT22;1904;50.076;8.660;2022-08-21T15:30:44;42.70;1.00
3778;DHT22;1904;50.076;8.660;2022-08-21T15:33:10;43.50;1.00
3778;DHT22;1904;50.076;8.660;2022-08-21T15:35:36;43.70;1.00
3778;DHT22;1904;50.076;8.660;2022-08-21T15:38:02;44.20;1.00
3778;DHT22;1904;50.076;8.660;2022-08-21T15:40:29;44.50;1.00
3778;DHT22;1904;50.076;8.660;2022-08-21T15:43:01;45.00;1.00
3778;DHT22;1904;50.076;8.660;2022-08-21T15:45:27;45.60;1.00
3778;DHT22;1904;50.076;8.660;2022-08-21T15:47:53;46.10;1.00
3778;DHT22;1904;50.076;8.660;2022-08-21T15:50:20;46.70;1.00
3778;DHT22;1904;50.076;8.660;2022-08-21T15:52:46;46.90;1.00
3778;DHT22;1904;50.076;8.660;2022-08-21T15:55:12;46.80;1.00
3778;DHT22;1904;50.076;8.660;2022-08-21T15:57:49;46.70;1.00
3778;DHT22;1904;50.076;8.660;2022-08-21T16:00:20;47.10;1.00
3778;DHT22;1904;50.076;8.660;2022-08-21T16:02:53;47.20;1.00
3778;DHT22;1904;50.076;8.660;2022-08-21T16:05:21;46.30;1.00
3778;DHT22;1904;50.076;8.660;2022-08-21T16:07:48;46.10;1.00
3778;DHT22;1904;50.076;8.660;2022-08-21T16:10:16;46.20;1.00
3778;DHT22;1904;50.076;8.660;2022-08-21T16:12:50;46.10;1.00
3778;DHT22;1904;50.076;8.660;2022-08-21T16:15:24;46.10;1.00
3778;DHT22;1904;50.076;8.660;2022-08-21T16:17:51;45.50;1.00
3778;DHT22;1904;50.076;8.660;2022-08-21T16:20:24;44.70;1.00
3778;DHT22;1904;50.076;8.660;2022-08-21T16:22:51;43.90;1.00
3778;DHT22;1904;50.076;8.660;2022-08-21T16:25:24;43.80;1.00
3778;DHT22;1904;50.076;8.660;2022-08-21T16:27:57;44.00;1.00
3778;DHT22;1904;50.076;8.660;2022-08-21T16:30:23;44.70;1.00
3778;DHT22;1904;50.076;8.660;2022-08-21T16:33:00;45.20;1.00
3778;DHT22;1904;50.076;8.660;2022-08-21T16:35:27;45.80;1.00
3778;DHT22;1904;50.076;8.660;2022-08-21T16:38:11;46.20;1.00
3778;DHT22;1904;50.076;8.660;2022-08-21T16:41:05;46.30;1.00
3778;DHT22;1904;50.076;8.660;2022-08-21T16:43:32;46.70;1.00
3778;DHT22;1904;50.076;8.660;2022-08-21T16:46:05;47.00;1.00
3778;DHT22;1904;50.076;8.660;2022-08-21T16:48:31;47.20;1.00
3778;DHT22;1904;50.076;8.660;2022-08-21T16:50:57;47.20;1.00
3778;DHT22;1904;50.076;8.660;2022-08-21T16:53:23;47.30;1.00
3778;DHT22;1904;50.076;8.660;2022-08-21T16:55:50;47.30;1.00
3778;DHT22;1904;50.076;8.660;2022-08-21T17:00:50;47.20;1.00
3778;DHT22;1904;50.076;8.660;2022-08-21T17:03:17;46.50;1.00
3778;DHT22;1904;50.076;8.660;2022-08-21T17:05:45;45.40;1.00
3778;DHT22;1904;50.076;8.660;2022-08-21T17:08:11;44.20;1.00
3778;DHT22;1904;50.076;8.660;2022-08-21T17:10:37;43.00;1.00
3778;DHT22;1904;50.076;8.660;2022-08-21T17:13:03;42.00;1.00
3778;DHT22;1904;50.076;8.660;2022-08-21T17:15:35;41.20;1.00
3778;DHT22;1904;50.076;8.660;2022-08-21T17:18:03;40.40;1.00
3778;DHT22;1904;50.076;8.660;2022-08-21T17:20:30;39.30;1.00
3778;DHT22;1904;50.076;8.660;2022-08-21T17:22:56;38.30;1.00
3778;DHT22;1904;50.076;8.660;2022-08-21T17:25:23;37.10;1.00
3778;DHT22;1904;50.076;8.660;2022-08-21T17:27:49;36.20;1.00
3778;DHT22;1904;50.076;8.660;2022-08-21T17:30:16;35.20;1.00
3778;DHT22;1904;50.076;8.660;2022-08-21T17:32:42;34.30;1.00
3778;DHT22;1904;50.076;8.660;2022-08-21T17:35:09;33.50;1.00
3778;DHT22;1904;50.076;8.660;2022-08-21T17:37:35;32.70;1.00
3778;DHT22;1904;50.076;8.660;2022-08-21T17:40:02;32.00;1.00
3778;DHT22;1904;50.076;8.660;2022-08-21T17:42:30;31.40;1.00
3778;DHT22;1904;50.076;8.660;2022-08-21T17:44:56;30.80;1.00
3778;DHT22;1904;50.076;8.660;2022-08-21T17:47:23;30.30;1.00
3778;DHT22;1904;50.076;8.660;2022-08-21T17:50:06;29.80;1.00
3778;DHT22;1904;50.076;8.660;2022-08-21T17:52:41;29.30;1.00
3778;DHT22;1904;50.076;8.660;2022-08-21T17:55:11;28.80;1.00
3778;DHT22;1904;50.076;8.660;2022-08-21T17:57:37;28.40;1.00
3778;DHT22;1904;50.076;8.660;2022-08-21T18:00:09;28.10;1.00
3778;DHT22;1904;50.076;8.660;2022-08-21T18:02:42;27.70;1.00
3778;DHT22;1904;50.076;8.660;2022-08-21T18:08:35;27.10;1.00
3778;DHT22;1904;50.076;8.660;2022-08-21T18:11:11;26.70;1.00
3778;DHT22;1904;50.076;8.660;2022-08-21T18:13:39;26.40;1.00
3778;DHT22;1904;50.076;8.660;2022-08-21T18:16:17;26.10;1.00
3778;DHT22;1904;50.076;8.660;2022-08-21T18:18:57;25.80;1.00
3778;DHT22;1904;50.076;8.660;2022-08-21T18:21:23;25.60;1.00
3778;DHT22;1904;50.076;8.660;2022-08-21T18:23:50;25.30;1.00
3778;DHT22;1904;50.076;8.660;2022-08-21T18:26:32;25.00;1.00
3778;DHT22;1904;50.076;8.660;2022-08-21T18:29:00;24.80;1.00
3778;DHT22;1904;50.076;8.660;2022-08-21T18:31:28;24.50;1.00
3778;DHT22;1904;50.076;8.660;2022-08-21T18:33:55;24.30;1.00
3778;DHT22;1904;50.076;8.660;2022-08-21T18:36:40;24.10;1.00
3778;DHT22;1904;50.076;8.660;2022-08-21T18:39:17;23.90;1.00
3778;DHT22;1904;50.076;8.660;2022-08-21T18:42:08;23.70;1.00
3778;DHT22;1904;50.076;8.660;2022-08-21T18:44:49;23.40;1.00
3778;DHT22;1904;50.076;8.660;2022-08-21T18:50:27;23.00;1.00
3778;DHT22;1904;50.076;8.660;2022-08-21T18:52:53;22.80;1.00
3778;DHT22;1904;50.076;8.660;2022-08-21T18:55:20;22.60;1.00
3778;DHT22;1904;50.076;8.660;2022-08-21T18:57:46;22.50;1.00
3778;DHT22;1904;50.076;8.660;2022-08-21T19:00:19;22.40;1.00
3778;DHT22;1904;50.076;8.660;2022-08-21T19:02:46;22.30;1.00
3778;DHT22;1904;50.076;8.660;2022-08-21T19:05:41;22.20;1.00
3778;DHT22;1904;50.076;8.660;2022-08-21T19:14:42;21.70;1.00
3778;DHT22;1904;50.076;8.660;2022-08-21T19:17:17;21.60;1.00
3778;DHT22;1904;50.076;8.660;2022-08-21T19:19:43;21.50;1.00
3778;DHT22;1904;50.076;8.660;2022-08-21T19:22:08;21.40;1.00
3778;DHT22;1904;50.076;8.660;2022-08-21T19:24:34;21.30;1.00
3778;DHT22;1904;50.076;8.660;2022-08-21T19:27:05;21.20;1.00